sensor_id;sensor_type;location;lat;lon;timestamp;pressure;altitude;pressure_sealevel;temperature;humidity
6136;BME280;24008;42.664;23.372;2023-02-20T00:02:17;94860.56;;;9.08;57.39
6136;BME280;24008;42.664;23.372;2023-02-20T00:04:45;95047.81;;;10.27;57.42
6136;BME280;24008;42.664;23.372;2023-02-20T00:07:12;94980.88;;;9.84;58.05
6136;BME280;24008;42.664;23.372;2023-02-20T00:09:39;94984.50;;;9.81;57.69
6136;BME280;24008;42.664;23.372;2023-02-20T00:12:06;94984.63;;;9.80;59.00
6136;BME280;24008;42.664;23.372;2023-02-20T00:14:34;94996.56;;;9.79;59.34
6136;BME280;24008;42.664;23.372;2023-02-20T00:17:01;95002.13;;;9.84;59.21
6136;BME280;24008;42.664;23.372;2023-02-20T00:19:28;95059.22;;;10.14;59.65
6136;BME280;24008;42.664;23.372;2023-02-20T00:21:55;94971.25;;;9.57;59.33
6136;BME280;24008;42.664;23.372;2023-02-20T00:24:22;95048.00;;;10.05;59.89
6136;BME280;24008;42.664;23.372;2023-02-20T00:26:51;95062.78;;;10.01;60.24
6136;BME280;24008;42.664;23.372;2023-02-20T00:29:19;95034.38;;;9.85;60.70
6136;BME280;24008;42.664;23.372;2023-02-20T00:31:51;95054.69;;;9.96;60.73
6136;BME280;24008;42.664;23.372;2023-02-20T00:34:18;95054.69;;;9.96;60.92
6136;BME280;24008;42.664;23.372;2023-02-20T00:36:45;95053.31;;;9.92;61.02
6136;BME280;24008;42.664;23.372;2023-02-20T00:39:12;95031.22;;;9.72;60.36
6136;BME280;24008;42.664;23.372;2023-02-20T00:41:39;94901.03;;;8.92;60.98
6136;BME280;24008;42.664;23.372;2023-02-20T00:44:06;95047.38;;;9.82;62.36
6136;BME280;24008;42.664;23.372;2023-02-20T00:46:32;95043.47;;;9.78;61.74
6136;BME280;24008;42.664;23.372;2023-02-20T00:49:01;95042.00;;;9.75;62.18
6136;BME280;24008;42.664;23.372;2023-02-20T00:51:28;95047.47;;;9.71;62.28
6136;BME280;24008;42.664;23.372;2023-02-20T00:53:55;95051.88;;;9.69;62.42
6136;BME280;24008;42.664;23.372;2023-02-20T00:56:22;95064.25;;;9.64;62.94
6136;BME280;24008;42.664;23.372;2023-02-20T00:58:49;95056.16;;;9.59;62.91
6136;BME280;24008;42.664;23.372;2023-02-20T01:01:17;95058.94;;;9.56;63.44
6136;BME280;24008;42.664;23.372;2023-02-20T01:03:43;95061.78;;;9.53;63.46
6136;BME280;24008;42.664;23.372;2023-02-20T01:06:12;95069.53;;;9.51;62.99
6136;BME280;24008;42.664;23.372;2023-02-20T01:08:38;95074.19;;;9.46;63.85
6136;BME280;24008;42.664;23.372;2023-02-20T01:11:05;95045.53;;;9.12;63.75
6136;BME280;24008;42.664;23.372;2023-02-20T01:13:32;95095.25;;;9.38;64.08
6136;BME280;24008;42.664;23.372;2023-02-20T01:15:59;95022.47;;;8.93;64.22
6136;BME280;24008;42.664;23.372;2023-02-20T01:18:25;95097.34;;;9.33;64.04
6136;BME280;24008;42.664;23.372;2023-02-20T01:20:52;95088.19;;;9.10;65.10
6136;BME280;24008;42.664;23.372;2023-02-20T01:23:20;95103.91;;;9.26;64.71
6136;BME280;24008;42.664;23.372;2023-02-20T01:25:47;95113.41;;;9.24;65.60
6136;BME280;24008;42.664;23.372;2023-02-20T01:28:14;95120.59;;;9.19;65.61
6136;BME280;24008;42.664;23.372;2023-02-20T01:30:41;95121.53;;;9.18;65.94
6136;BME280;24008;42.664;23.372;2023-02-20T01:33:08;95094.16;;;8.99;65.70
6136;BME280;24008;42.664;23.372;2023-02-20T01:35:35;95058.41;;;8.90;65.55
6136;BME280;24008;42.664;23.372;2023-02-20T01:38:02;95078.75;;;9.01;65.67
6136;BME280;24008;42.664;23.372;2023-02-20T01:40:33;95090.69;;;9.00;65.97
6136;BME280;24008;42.664;23.372;2023-02-20T01:43:00;95109.13;;;9.25;65.81
6136;BME280;24008;42.664;23.372;2023-02-20T01:45:32;95073.59;;;9.12;65.72
6136;BME280;24008;42.664;23.372;2023-02-20T01:48:00;95113.84;;;9.29;66.01
6136;BME280;24008;42.664;23.372;2023-02-20T01:50:29;95092.47;;;9.10;66.16
6136;BME280;24008;42.664;23.372;2023-02-20T01:53:01;95067.84;;;8.99;66.74
6136;BME280;24008;42.664;23.372;2023-02-20T01:55:35;95109.63;;;9.39;66.11
6136;BME280;24008;42.664;23.372;2023-02-20T01:58:07;95090.09;;;9.29;66.89
6136;BME280;24008;42.664;23.372;2023-02-20T02:00:36;95100.34;;;9.38;67.35
6136;BME280;24008;42.664;23.372;2023-02-20T02:03:05;95111.66;;;9.46;67.12
6136;BME280;24008;42.664;23.372;2023-02-20T02:05:33;95129.53;;;9.46;67.83
6136;BME280;24008;42.664;23.372;2023-02-20T02:08:02;95124.53;;;9.44;67.10
6136;BME280;24008;42.664;23.372;2023-02-20T02:10:35;95001.16;;;8.62;67.41
6136;BME280;24008;42.664;23.372;2023-02-20T02:13:05;95008.88;;;8.72;67.50
6136;BME280;24008;42.664;23.372;2023-02-20T02:15:32;95093.34;;;9.20;67.94
6136;BME280;24008;42.664;23.372;2023-02-20T02:18:07;95043.03;;;8.80;67.71
6136;BME280;24008;42.664;23.372;2023-02-20T02:21:19;95136.00;;;9.29;67.76
6136;BME280;24008;42.664;23.372;2023-02-20T02:27:29;95057.56;;;8.69;67.60
6136;BME280;24008;42.664;23.372;2023-02-20T02:30:22;95138.50;;;9.08;67.33
6136;BME280;24008;42.664;23.372;2023-02-20T02:33:23;95151.06;;;9.00;66.77
6136;BME280;24008;42.664;23.372;2023-02-20T02:36:23;95156.31;;;8.87;66.28
6136;BME280;24008;42.664;23.372;2023-02-20T02:38:59;95113.28;;;8.62;66.99
6136;BME280;24008;42.664;23.372;2023-02-20T02:41:33;95137.09;;;8.72;67.21
6136;BME280;24008;42.664;23.372;2023-02-20T02:44:10;95122.44;;;8.53;67.30
6136;BME280;24008;42.664;23.372;2023-02-20T02:46:42;95145.69;;;8.60;67.42
6136;BME280;24008;42.664;23.372;2023-02-20T02:49:19;95149.66;;;8.53;67.38
6136;BME280;24008;42.664;23.372;2023-02-20T02:51:49;95145.94;;;8.46;67.47
6136;BME280;24008;42.664;23.372;2023-02-20T02:54:22;95147.25;;;8.40;68.24
6136;BME280;24008;42.664;23.372;2023-02-20T02:56:52;95151.88;;;8.35;67.93
6136;BME280;24008;42.664;23.372;2023-02-20T02:59:24;95158.09;;;8.31;68.49
6136;BME280;24008;42.664;23.372;2023-02-20T03:01:56;95160.88;;;8.28;69.11
6136;BME280;24008;42.664;23.372;2023-02-20T03:04:26;95174.53;;;8.27;68.31
6136;BME280;24008;42.664;23.372;2023-02-20T03:06:58;95182.28;;;8.25;68.98
6136;BME280;24008;42.664;23.372;2023-02-20T03:09:28;95184.25;;;8.22;68.92
6136;BME280;24008;42.664;23.372;2023-02-20T03:11:58;95181.84;;;8.20;69.53
6136;BME280;24008;42.664;23.372;2023-02-20T03:14:32;95181.69;;;8.22;69.06
6136;BME280;24008;42.664;23.372;2023-02-20T03:17:23;95179.16;;;8.22;68.99
6136;BME280;24008;42.664;23.372;2023-02-20T03:19:55;95136.78;;;7.99;69.21
6136;BME280;24008;42.664;23.372;2023-02-20T03:22:26;95078.94;;;7.56;69.34
6136;BME280;24008;42.664;23.372;2023-02-20T03:24:56;95177.19;;;8.14;69.19
6136;BME280;24008;42.664;23.372;2023-02-20T03:27:28;95162.25;;;7.99;69.36
6136;BME280;24008;42.664;23.372;2023-02-20T03:30:06;95098.25;;;7.58;69.64
6136;BME280;24008;42.664;23.372;2023-02-20T03:32:36;95201.25;;;8.10;69.08
6136;BME280;24008;42.664;23.372;2023-02-20T03:35:23;95182.25;;;7.92;69.34
6136;BME280;24008;42.664;23.372;2023-02-20T03:38:12;95211.09;;;8.04;69.61
6136;BME280;24008;42.664;23.372;2023-02-20T03:40:57;95210.38;;;8.02;69.76
6136;BME280;24008;42.664;23.372;2023-02-20T03:43:44;95204.59;;;8.00;69.17
6136;BME280;24008;42.664;23.372;2023-02-20T03:46:16;95208.31;;;7.95;69.40
6136;BME280;24008;42.664;23.372;2023-02-20T03:48:50;95216.88;;;7.94;69.09
6136;BME280;24008;42.664;23.372;2023-02-20T03:51:19;95185.72;;;7.80;69.43
6136;BME280;24008;42.664;23.372;2023-02-20T03:54:05;95158.13;;;7.51;69.48
6136;BME280;24008;42.664;23.372;2023-02-20T03:56:36;95210.84;;;7.84;69.61
6136;BME280;24008;42.664;23.372;2023-02-20T03:59:09;95205.16;;;7.81;69.58
6136;BME280;24008;42.664;23.372;2023-02-20T04:01:38;95218.91;;;7.78;69.73
6136;BME280;24008;42.664;23.372;2023-02-20T04:04:10;95153.56;;;7.33;69.55
6136;BME280;24008;42.664;23.372;2023-02-20T04:06:38;95209.03;;;7.74;69.71
6136;BME280;24008;42.664;23.372;2023-02-20T04:09:11;95209.66;;;7.77;69.37
6136;BME280;24008;42.664;23.372;2023-02-20T04:11:42;95220.84;;;7.75;69.04
6136;BME280;24008;42.664;23.372;2023-02-20T04:14:10;95222.47;;;7.76;68.62
6136;BME280;24008;42.664;23.372;2023-02-20T04:16:43;95223.28;;;7.76;69.00
6136;BME280;24008;42.664;23.372;2023-02-20T04:19:11;95217.63;;;7.73;68.52
6136;BME280;24008;42.664;23.372;2023-02-20T04:21:40;95209.13;;;7.61;68.50
6136;BME280;24008;42.664;23.372;2023-02-20T04:24:11;95204.31;;;7.69;68.33
6136;BME280;24008;42.664;23.372;2023-02-20T04:26:40;95228.75;;;7.83;68.33
6136;BME280;24008;42.664;23.372;2023-02-20T04:29:07;95155.22;;;7.45;67.96
6136;BME280;24008;42.664;23.372;2023-02-20T04:31:34;95223.56;;;7.84;68.14
6136;BME280;24008;42.664;23.372;2023-02-20T04:34:00;95210.78;;;7.73;68.28
6136;BME280;24008;42.664;23.372;2023-02-20T04:36:27;95152.91;;;7.42;67.38
6136;BME280;24008;42.664;23.372;2023-02-20T04:38:54;95035.03;;;6.62;68.25
6136;BME280;24008;42.664;23.372;2023-02-20T04:41:22;95220.75;;;7.87;68.39
6136;BME280;24008;42.664;23.372;2023-02-20T04:43:49;95210.84;;;7.84;68.52
6136;BME280;24008;42.664;23.372;2023-02-20T04:46:35;95192.63;;;7.67;68.47
6136;BME280;24008;42.664;23.372;2023-02-20T04:49:02;95214.72;;;7.77;68.96
6136;BME280;24008;42.664;23.372;2023-02-20T04:51:29;95226.84;;;7.74;68.68
6136;BME280;24008;42.664;23.372;2023-02-20T04:53:56;95232.31;;;7.69;68.84
6136;BME280;24008;42.664;23.372;2023-02-20T04:56:24;95210.72;;;7.51;68.73
6136;BME280;24008;42.664;23.372;2023-02-20T04:58:51;95192.94;;;7.27;68.63
6136;BME280;24008;42.664;23.372;2023-02-20T05:01:17;95236.66;;;7.56;67.79
6136;BME280;24008;42.664;23.372;2023-02-20T05:03:44;95243.56;;;7.54;67.43
6136;BME280;24008;42.664;23.372;2023-02-20T05:06:11;95251.41;;;7.51;67.78
6136;BME280;24008;42.664;23.372;2023-02-20T05:08:38;95240.47;;;7.38;66.60
6136;BME280;24008;42.664;23.372;2023-02-20T05:11:05;95254.66;;;7.53;65.91
6136;BME280;24008;42.664;23.372;2023-02-20T05:13:33;95229.03;;;7.32;65.50
6136;BME280;24008;42.664;23.372;2023-02-20T05:16:00;95241.09;;;7.41;65.06
6136;BME280;24008;42.664;23.372;2023-02-20T05:18:28;95246.66;;;7.46;64.92
6136;BME280;24008;42.664;23.372;2023-02-20T05:20:55;95258.84;;;7.54;63.80
6136;BME280;24008;42.664;23.372;2023-02-20T05:23:40;95217.66;;;7.25;63.53
6136;BME280;24008;42.664;23.372;2023-02-20T05:26:08;95202.50;;;7.12;63.28
6136;BME280;24008;42.664;23.372;2023-02-20T05:28:36;95266.47;;;7.54;63.22
6136;BME280;24008;42.664;23.372;2023-02-20T05:31:04;95277.34;;;7.56;62.78
6136;BME280;24008;42.664;23.372;2023-02-20T05:33:31;95276.69;;;7.65;62.54
6136;BME280;24008;42.664;23.372;2023-02-20T05:35:58;95266.22;;;7.81;61.86
6136;BME280;24008;42.664;23.372;2023-02-20T05:38:25;95266.84;;;7.95;60.64
6136;BME280;24008;42.664;23.372;2023-02-20T05:40:52;95288.97;;;8.52;60.15
6136;BME280;24008;42.664;23.372;2023-02-20T05:43:19;95293.09;;;9.20;58.15
6136;BME280;24008;42.664;23.372;2023-02-20T05:45:47;95300.41;;;9.68;57.53
6136;BME280;24008;42.664;23.372;2023-02-20T05:48:15;95300.72;;;10.06;55.80
6136;BME280;24008;42.664;23.372;2023-02-20T05:50:41;95305.69;;;10.08;54.79
6136;BME280;24008;42.664;23.372;2023-02-20T05:53:08;95302.81;;;10.33;54.59
6136;BME280;24008;42.664;23.372;2023-02-20T05:55:35;95287.94;;;10.69;53.50
6136;BME280;24008;42.664;23.372;2023-02-20T05:58:02;95312.69;;;10.99;52.70
6136;BME280;24008;42.664;23.372;2023-02-20T06:00:28;95276.13;;;10.77;53.06
6136;BME280;24008;42.664;23.372;2023-02-20T06:02:57;95304.25;;;11.08;52.87
6136;BME280;24008;42.664;23.372;2023-02-20T06:05:23;95305.53;;;10.93;52.59
6136;BME280;24008;42.664;23.372;2023-02-20T06:07:52;95309.44;;;10.66;53.22
6136;BME280;24008;42.664;23.372;2023-02-20T06:10:19;95318.13;;;10.54;54.15
6136;BME280;24008;42.664;23.372;2023-02-20T06:12:46;95290.00;;;10.13;54.03
6136;BME280;24008;42.664;23.372;2023-02-20T06:15:13;95293.88;;;10.28;53.60
6136;BME280;24008;42.664;23.372;2023-02-20T06:17:39;95197.53;;;9.35;52.48
6136;BME280;24008;42.664;23.372;2023-02-20T06:20:08;95296.59;;;9.94;53.85
6136;BME280;24008;42.664;23.372;2023-02-20T06:22:35;95316.66;;;9.99;52.46
6136;BME280;24008;42.664;23.372;2023-02-20T06:25:02;95314.41;;;10.05;51.22
6136;BME280;24008;42.664;23.372;2023-02-20T06:27:29;95312.31;;;10.10;51.73
6136;BME280;24008;42.664;23.372;2023-02-20T06:29:56;95324.41;;;10.71;50.75
6136;BME280;24008;42.664;23.372;2023-02-20T06:32:23;95251.94;;;10.91;48.91
6136;BME280;24008;42.664;23.372;2023-02-20T06:34:49;95332.06;;;11.91;47.61
6136;BME280;24008;42.664;23.372;2023-02-20T06:37:18;95302.50;;;11.68;47.06
6136;BME280;24008;42.664;23.372;2023-02-20T06:39:44;95326.81;;;12.02;46.86
6136;BME280;24008;42.664;23.372;2023-02-20T06:42:13;95317.03;;;12.54;45.88
6136;BME280;24008;42.664;23.372;2023-02-20T06:44:40;95311.09;;;13.00;43.76
6136;BME280;24008;42.664;23.372;2023-02-20T06:47:07;95333.81;;;13.32;42.67
6136;BME280;24008;42.664;23.372;2023-02-20T06:49:34;95316.53;;;12.87;43.06
6136;BME280;24008;42.664;23.372;2023-02-20T06:52:01;95333.31;;;12.72;43.15
6136;BME280;24008;42.664;23.372;2023-02-20T06:54:29;95309.25;;;11.98;44.29
6136;BME280;24008;42.664;23.372;2023-02-20T06:56:56;95345.69;;;11.82;44.71
6136;BME280;24008;42.664;23.372;2023-02-20T06:59:24;95348.88;;;11.84;45.02
6136;BME280;24008;42.664;23.372;2023-02-20T07:01:51;95190.22;;;10.65;46.01
6136;BME280;24008;42.664;23.372;2023-02-20T07:04:19;95354.16;;;11.33;46.45
6136;BME280;24008;42.664;23.372;2023-02-20T07:06:46;95342.31;;;11.41;46.98
6136;BME280;24008;42.664;23.372;2023-02-20T07:09:13;95336.97;;;11.64;45.65
6136;BME280;24008;42.664;23.372;2023-02-20T07:11:42;95348.38;;;12.29;44.52
6136;BME280;24008;42.664;23.372;2023-02-20T07:14:09;95339.41;;;13.18;42.85
6136;BME280;24008;42.664;23.372;2023-02-20T07:16:36;95338.66;;;13.35;41.49
6136;BME280;24008;42.664;23.372;2023-02-20T07:19:03;95345.59;;;13.97;39.91
6136;BME280;24008;42.664;23.372;2023-02-20T07:21:29;95297.31;;;13.56;39.40
6136;BME280;24008;42.664;23.372;2023-02-20T07:23:56;95361.50;;;14.72;39.07
6136;BME280;24008;42.664;23.372;2023-02-20T07:26:25;95300.78;;;15.55;35.59
6136;BME280;24008;42.664;23.372;2023-02-20T07:28:55;95370.75;;;15.84;35.35
6136;BME280;24008;42.664;23.372;2023-02-20T07:31:23;95348.44;;;15.25;35.46
6136;BME280;24008;42.664;23.372;2023-02-20T07:33:50;95376.56;;;14.85;36.11
6136;BME280;24008;42.664;23.372;2023-02-20T07:36:17;95347.19;;;14.69;36.18
6136;BME280;24008;42.664;23.372;2023-02-20T07:38:52;95375.84;;;14.39;36.61
6136;BME280;24008;42.664;23.372;2023-02-20T07:41:19;95344.66;;;13.98;36.71
6136;BME280;24008;42.664;23.372;2023-02-20T07:43:46;95371.44;;;14.49;36.55
6136;BME280;24008;42.664;23.372;2023-02-20T07:46:14;95382.34;;;14.61;36.37
6136;BME280;24008;42.664;23.372;2023-02-20T07:48:40;95320.50;;;14.53;35.91
6136;BME280;24008;42.664;23.372;2023-02-20T07:51:07;95372.44;;;14.74;35.74
6136;BME280;24008;42.664;23.372;2023-02-20T07:53:34;95394.59;;;14.67;35.36
6136;BME280;24008;42.664;23.372;2023-02-20T07:56:01;95346.59;;;14.58;35.61
6136;BME280;24008;42.664;23.372;2023-02-20T07:58:29;95369.16;;;15.16;34.79
6136;BME280;24008;42.664;23.372;2023-02-20T08:00:56;95343.16;;;15.27;33.91
6136;BME280;24008;42.664;23.372;2023-02-20T08:03:26;95370.00;;;15.58;33.14
6136;BME280;24008;42.664;23.372;2023-02-20T08:05:53;95368.16;;;15.84;33.19
6136;BME280;24008;42.664;23.372;2023-02-20T08:08:19;95380.03;;;16.36;32.79
6136;BME280;24008;42.664;23.372;2023-02-20T08:10:49;95395.53;;;17.09;32.11
6136;BME280;24008;42.664;23.372;2023-02-20T08:13:16;95327.47;;;17.33;31.12
6136;BME280;24008;42.664;23.372;2023-02-20T08:15:43;95384.34;;;18.11;29.33
6136;BME280;24008;42.664;23.372;2023-02-20T08:18:10;95287.56;;;16.96;30.37
6136;BME280;24008;42.664;23.372;2023-02-20T08:20:38;95320.56;;;17.17;30.35
6136;BME280;24008;42.664;23.372;2023-02-20T08:23:05;95381.66;;;17.96;29.56
6136;BME280;24008;42.664;23.372;2023-02-20T08:25:32;95391.00;;;18.28;29.23
6136;BME280;24008;42.664;23.372;2023-02-20T08:27:59;95361.91;;;18.26;29.16
6136;BME280;24008;42.664;23.372;2023-02-20T08:30:27;95390.28;;;18.42;28.78
6136;BME280;24008;42.664;23.372;2023-02-20T08:32:54;95362.22;;;18.31;28.97
6136;BME280;24008;42.664;23.372;2023-02-20T08:35:22;95379.88;;;17.96;29.40
6136;BME280;24008;42.664;23.372;2023-02-20T08:37:50;95339.56;;;18.33;28.96
6136;BME280;24008;42.664;23.372;2023-02-20T08:40:17;95338.44;;;18.05;28.88
6136;BME280;24008;42.664;23.372;2023-02-20T08:42:44;95398.38;;;18.16;29.62
6136;BME280;24008;42.664;23.372;2023-02-20T08:45:13;95372.38;;;18.32;28.71
6136;BME280;24008;42.664;23.372;2023-02-20T08:47:40;95394.56;;;18.04;29.33
6136;BME280;24008;42.664;23.372;2023-02-20T08:50:07;95400.28;;;17.91;29.36
6136;BME280;24008;42.664;23.372;2023-02-20T08:52:33;95384.91;;;17.90;29.43
6136;BME280;24008;42.664;23.372;2023-02-20T08:55:02;95307.94;;;17.69;29.39
6136;BME280;24008;42.664;23.372;2023-02-20T08:57:29;95379.75;;;18.21;29.31
6136;BME280;24008;42.664;23.372;2023-02-20T08:59:56;95399.75;;;18.27;29.38
6136;BME280;24008;42.664;23.372;2023-02-20T09:02:23;95386.44;;;18.61;28.52
6136;BME280;24008;42.664;23.372;2023-02-20T09:04:53;95378.63;;;18.69;28.90
6136;BME280;24008;42.664;23.372;2023-02-20T09:07:20;95378.41;;;18.93;28.29
6136;BME280;24008;42.664;23.372;2023-02-20T09:09:47;95386.56;;;19.20;27.99
6136;BME280;24008;42.664;23.372;2023-02-20T09:12:17;95333.44;;;18.72;28.00
6136;BME280;24008;42.664;23.372;2023-02-20T09:14:44;95352.81;;;18.76;28.02
6136;BME280;24008;42.664;23.372;2023-02-20T09:17:11;95369.41;;;18.66;28.04
6136;BME280;24008;42.664;23.372;2023-02-20T09:19:37;95351.56;;;18.26;28.34
6136;BME280;24008;42.664;23.372;2023-02-20T09:22:04;95370.72;;;18.62;27.99
6136;BME280;24008;42.664;23.372;2023-02-20T09:24:31;95346.00;;;18.75;27.52
6136;BME280;24008;42.664;23.372;2023-02-20T09:26:58;95374.03;;;18.94;27.96
6136;BME280;24008;42.664;23.372;2023-02-20T09:29:27;95346.06;;;18.89;27.53
6136;BME280;24008;42.664;23.372;2023-02-20T09:31:54;95367.69;;;19.11;27.59
6136;BME280;24008;42.664;23.372;2023-02-20T09:34:21;95366.38;;;19.59;26.80
6136;BME280;24008;42.664;23.372;2023-02-20T09:36:51;95385.84;;;19.40;27.10
6136;BME280;24008;42.664;23.372;2023-02-20T09:39:17;95367.09;;;19.53;26.74
6136;BME280;24008;42.664;23.372;2023-02-20T09:42:01;95350.00;;;19.15;27.25
6136;BME280;24008;42.664;23.372;2023-02-20T09:44:38;95318.19;;;18.54;27.93
6136;BME280;24008;42.664;23.372;2023-02-20T09:47:27;95364.56;;;18.41;29.29
6136;BME280;24008;42.664;23.372;2023-02-20T09:50:00;95292.34;;;17.85;29.09
6136;BME280;24008;42.664;23.372;2023-02-20T09:52:30;95336.06;;;17.72;29.57
6136;BME280;24008;42.664;23.372;2023-02-20T09:55:02;95251.34;;;17.12;30.15
6136;BME280;24008;42.664;23.372;2023-02-20T09:57:34;95374.72;;;17.96;29.76
6136;BME280;24008;42.664;23.372;2023-02-20T10:00:06;95389.94;;;18.45;29.70
6136;BME280;24008;42.664;23.372;2023-02-20T10:02:37;95378.47;;;18.85;28.56
6136;BME280;24008;42.664;23.372;2023-02-20T10:05:13;95321.84;;;18.82;27.93
6136;BME280;24008;42.664;23.372;2023-02-20T10:07:45;95380.31;;;19.43;27.83
6136;BME280;24008;42.664;23.372;2023-02-20T10:10:19;95366.72;;;19.56;27.25
6136;BME280;24008;42.664;23.372;2023-02-20T10:12:55;95354.47;;;19.21;27.02
6136;BME280;24008;42.664;23.372;2023-02-20T10:15:33;95331.22;;;18.23;27.41
6136;BME280;24008;42.664;23.372;2023-02-20T10:18:13;95358.63;;;17.86;28.51
6136;BME280;24008;42.664;23.372;2023-02-20T10:20:50;95354.06;;;17.88;28.47
6136;BME280;24008;42.664;23.372;2023-02-20T10:23:29;95370.72;;;18.40;27.97
6136;BME280;24008;42.664;23.372;2023-02-20T10:26:04;95363.34;;;18.28;27.70
6136;BME280;24008;42.664;23.372;2023-02-20T10:28:32;95300.03;;;17.93;27.89
6136;BME280;24008;42.664;23.372;2023-02-20T10:31:08;95326.50;;;18.04;27.92
6136;BME280;24008;42.664;23.372;2023-02-20T10:33:41;95356.63;;;18.19;27.29
6136;BME280;24008;42.664;23.372;2023-02-20T10:36:12;95232.47;;;17.43;27.31
6136;BME280;24008;42.664;23.372;2023-02-20T10:38:45;95339.25;;;18.05;27.14
6136;BME280;24008;42.664;23.372;2023-02-20T10:41:18;95282.16;;;17.53;27.10
6136;BME280;24008;42.664;23.372;2023-02-20T10:43:50;95284.38;;;17.64;26.79
6136;BME280;24008;42.664;23.372;2023-02-20T10:46:27;95342.88;;;17.65;27.55
6136;BME280;24008;42.664;23.372;2023-02-20T10:48:56;95247.31;;;16.46;28.74
6136;BME280;24008;42.664;23.372;2023-02-20T10:51:27;95351.13;;;15.92;30.51
6136;BME280;24008;42.664;23.372;2023-02-20T10:53:59;95320.66;;;15.03;31.94
6136;BME280;24008;42.664;23.372;2023-02-20T10:56:32;95222.53;;;13.94;32.35
6136;BME280;24008;42.664;23.372;2023-02-20T10:59:06;95291.09;;;13.94;32.58
6136;BME280;24008;42.664;23.372;2023-02-20T11:01:37;95314.47;;;14.00;32.90
6136;BME280;24008;42.664;23.372;2023-02-20T11:04:09;95283.78;;;13.63;33.49
6136;BME280;24008;42.664;23.372;2023-02-20T11:06:39;95276.41;;;13.51;33.50
6136;BME280;24008;42.664;23.372;2023-02-20T11:09:08;95283.53;;;13.57;33.69
6136;BME280;24008;42.664;23.372;2023-02-20T11:11:37;95283.09;;;13.61;34.84
6136;BME280;24008;42.664;23.372;2023-02-20T11:14:11;95295.13;;;13.79;34.21
6136;BME280;24008;42.664;23.372;2023-02-20T11:16:44;95313.72;;;13.73;33.36
6136;BME280;24008;42.664;23.372;2023-02-20T11:19:17;95250.03;;;13.31;34.55
6136;BME280;24008;42.664;23.372;2023-02-20T11:21:47;94982.34;;;11.50;34.69
6136;BME280;24008;42.664;23.372;2023-02-20T11:24:29;95307.94;;;13.43;34.75
6136;BME280;24008;42.664;23.372;2023-02-20T11:27:14;95303.47;;;13.45;35.16
6136;BME280;24008;42.664;23.372;2023-02-20T11:29:47;95232.81;;;13.14;34.97
6136;BME280;24008;42.664;23.372;2023-02-20T11:35:22;95300.28;;;13.61;35.06
6136;BME280;24008;42.664;23.372;2023-02-20T11:38:15;95305.97;;;13.55;34.80
6136;BME280;24008;42.664;23.372;2023-02-20T11:40:44;95303.25;;;13.56;34.99
6136;BME280;24008;42.664;23.372;2023-02-20T11:43:18;95309.66;;;13.52;35.11
6136;BME280;24008;42.664;23.372;2023-02-20T11:45:46;95312.88;;;13.54;34.96
6136;BME280;24008;42.664;23.372;2023-02-20T11:48:16;95263.91;;;13.11;35.13
6136;BME280;24008;42.664;23.372;2023-02-20T11:50:45;95201.09;;;12.60;35.73
6136;BME280;24008;42.664;23.372;2023-02-20T11:53:18;95245.06;;;12.92;35.86
6136;BME280;24008;42.664;23.372;2023-02-20T11:55:46;95067.16;;;11.84;35.34
6136;BME280;24008;42.664;23.372;2023-02-20T11:58:21;95286.28;;;13.28;35.32
6136;BME280;24008;42.664;23.372;2023-02-20T12:00:51;95301.38;;;13.31;35.63
6136;BME280;24008;42.664;23.372;2023-02-20T12:03:23;95209.22;;;12.83;35.38
6136;BME280;24008;42.664;23.372;2023-02-20T12:05:50;95285.41;;;13.37;35.50
6136;BME280;24008;42.664;23.372;2023-02-20T12:08:48;95294.97;;;13.17;35.75
6136;BME280;24008;42.664;23.372;2023-02-20T12:11:19;95278.88;;;13.25;35.89
6136;BME280;24008;42.664;23.372;2023-02-20T12:13:47;95271.16;;;13.25;35.90
6136;BME280;24008;42.664;23.372;2023-02-20T12:16:25;95251.53;;;12.96;35.91
6136;BME280;24008;42.664;23.372;2023-02-20T12:19:03;95255.50;;;12.91;35.74
6136;BME280;24008;42.664;23.372;2023-02-20T12:21:40;95252.81;;;12.83;35.75
6136;BME280;24008;42.664;23.372;2023-02-20T12:24:26;95280.31;;;13.00;35.51
6136;BME280;24008;42.664;23.372;2023-02-20T12:26:56;95196.72;;;12.43;35.75
6136;BME280;24008;42.664;23.372;2023-02-20T12:29:35;95246.16;;;12.62;35.77
6136;BME280;24008;42.664;23.372;2023-02-20T12:32:19;95271.00;;;12.62;36.35
6136;BME280;24008;42.664;23.372;2023-02-20T12:35:01;95312.50;;;12.85;36.26
6136;BME280;24008;42.664;23.372;2023-02-20T12:37:39;95297.47;;;12.99;36.21
6136;BME280;24008;42.664;23.372;2023-02-20T12:43:17;95232.69;;;12.88;35.21
6136;BME280;24008;42.664;23.372;2023-02-20T12:45:52;95294.75;;;13.28;36.26
6136;BME280;24008;42.664;23.372;2023-02-20T12:48:30;95290.13;;;13.14;36.11
6136;BME280;24008;42.664;23.372;2023-02-20T12:51:23;95285.81;;;13.15;35.55
6136;BME280;24008;42.664;23.372;2023-02-20T12:54:06;95220.94;;;12.58;35.99
6136;BME280;24008;42.664;23.372;2023-02-20T12:56:48;95227.44;;;12.52;36.65
6136;BME280;24008;42.664;23.372;2023-02-20T12:59:25;95304.66;;;12.86;36.56
6136;BME280;24008;42.664;23.372;2023-02-20T13:01:54;95294.50;;;12.94;36.10
6136;BME280;24008;42.664;23.372;2023-02-20T13:04:29;95162.66;;;12.13;36.06
6136;BME280;24008;42.664;23.372;2023-02-20T13:07:04;95282.47;;;12.95;36.04
6136;BME280;24008;42.664;23.372;2023-02-20T13:09:34;95312.50;;;13.22;35.90
6136;BME280;24008;42.664;23.372;2023-02-20T13:12:05;95240.25;;;12.89;35.46
6136;BME280;24008;42.664;23.372;2023-02-20T13:14:49;95230.97;;;13.06;35.56
6136;BME280;24008;42.664;23.372;2023-02-20T13:17:26;95300.88;;;13.27;35.34
6136;BME280;24008;42.664;23.372;2023-02-20T13:19:59;95233.09;;;12.83;35.40
6136;BME280;24008;42.664;23.372;2023-02-20T13:22:35;95316.03;;;13.21;36.24
6136;BME280;24008;42.664;23.372;2023-02-20T13:25:38;95304.41;;;13.17;35.92
6136;BME280;24008;42.664;23.372;2023-02-20T13:28:32;95303.78;;;13.15;35.86
6136;BME280;24008;42.664;23.372;2023-02-20T13:31:21;95225.88;;;12.69;35.85
6136;BME280;24008;42.664;23.372;2023-02-20T13:33:50;95278.28;;;13.04;35.81
6136;BME280;24008;42.664;23.372;2023-02-20T13:36:40;95319.34;;;13.04;36.15